Time,TemperatureF,DewpointF,PressureIn,WindDirection,WindDirectionDegrees,WindSpeedMPH,WindSpeedGustMPH,Humidity,HourlyPrecipIn,Conditions,Clouds,dailyrainin,SoftwareType,DateUTC
2013-01-01 00:02:00,-6.0,-8.0,-100.00,South,185,7.0,9.0,90,-99.99,,,-99.99,,2013-01-01 06:02:00,
2013-01-01 00:12:00,-6.0,-8.0,-100.00,South,185,7.0,9.0,90,-99.99,,,-99.99,,2013-01-01 06:12:00,
2013-01-01 00:22:00,-6.0,-8.0,-100.00,South,185,7.0,9.0,90,-99.99,,,-99.99,,2013-01-01 06:22:00,
2013-01-01 00:32:00,-7.0,-9.0,-100.00,SSW,200,6.0,8.0,90,-99.99,,,-99.99,,2013-01-01 06:32:00,
2013-01-01 00:43:00,-7.0,-9.0,-100.00,SSW,200,6.0,8.0,90,-99.99,,,-99.99,,2013-01-01 06:43:00,
2013-01-01 00:52:00,-7.0,-9.0,-100.00,SSW,200,6.0,8.0,90,-99.99,,,-99.99,,2013-01-01 06:52:00,
2013-01-01 01:02:00,-6.0,-8.0,-100.00,South,185,9.0,12.0,90,-99.99,,,-99.99,,2013-01-01 07:02:00,
2013-01-01 01:12:00,-6.0,-8.0,-100.00,South,185,9.0,12.0,90,-99.99,,,-99.99,,2013-01-01 07:12:00,
2013-01-01 01:22:00,-6.0,-8.0,-100.00,South,185,9.0,12.0,90,-99.99,,,-99.99,,2013-01-01 07:22:00,
2013-01-01 01:32:00,-7.0,-9.0,-100.00,South,185,7.0,10.0,90,-99.99,,,-99.99,,2013-01-01 07:32:00,
2013-01-01 01:42:00,-7.0,-9.0,-100.00,South,185,7.0,10.0,90,-99.99,,,-99.99,,2013-01-01 07:42:00,
2013-01-01 01:52:00,-7.0,-9.0,-100.00,South,185,7.0,10.0,90,-99.99,,,-99.99,,2013-01-01 07:52:00,
2013-01-01 02:02:00,-7.0,-9.0,-100.00,South,185,7.0,9.0,90,-99.99,,,-99.99,,2013-01-01 08:02:00,
2013-01-01 02:12:00,-7.0,-9.0,-100.00,South,185,7.0,9.0,90,-99.99,,,-99.99,,2013-01-01 08:12:00,
2013-01-01 02:22:00,-7.0,-9.0,-100.00,South,185,7.0,9.0,90,-99.99,,,-99.99,,2013-01-01 08:22:00,
2013-01-01 02:32:00,-7.0,-9.0,-100.00,South,180,7.0,11.0,90,-99.99,,,-99.99,,2013-01-01 08:32:00,
2013-01-01 02:42:00,-7.0,-9.0,-100.00,South,180,7.0,11.0,90,-99.99,,,-99.99,,2013-01-01 08:42:00,
2013-01-01 02:53:00,-7.0,-9.0,-100.00,South,180,7.0,11.0,90,-99.99,,,-99.99,,2013-01-01 08:53:00,
2013-01-01 03:02:00,-7.0,-9.0,-100.00,South,185,7.0,9.0,90,-99.99,,,-99.99,,2013-01-01 09:02:00,
2013-01-01 03:12:00,-7.0,-9.0,-100.00,South,185,7.0,9.0,90,-99.99,,,-99.99,,2013-01-01 09:12:00,
2013-01-01 03:22:00,-7.0,-9.0,-100.00,South,185,7.0,9.0,90,-99.99,,,-99.99,,2013-01-01 09:22:00,
2013-01-01 03:32:00,-6.0,-8.0,-100.00,South,185,11.0,14.0,90,-99.99,,,-99.99,,2013-01-01 09:32:00,
2013-01-01 03:42:00,-6.0,-8.0,-100.00,South,185,11.0,14.0,90,-99.99,,,-99.99,,2013-01-01 09:42:00,
2013-01-01 03:52:00,-6.0,-8.0,-100.00,South,185,11.0,14.0,90,-99.99,,,-99.99,,2013-01-01 09:52:00,
2013-01-01 04:02:00,-6.0,-8.0,-100.00,SSW,195,7.0,12.0,90,-99.99,,,-99.99,,2013-01-01 10:02:00,
2013-01-01 04:12:00,-6.0,-8.0,-100.00,SSW,195,7.0,12.0,90,-99.99,,,-99.99,,2013-01-01 10:12:00,
2013-01-01 04:22:00,-6.0,-8.0,-100.00,SSW,195,7.0,12.0,90,-99.99,,,-99.99,,2013-01-01 10:22:00,
2013-01-01 04:33:00,-7.0,-9.0,-100.00,South,190,7.0,11.0,90,-99.99,,,-99.99,,2013-01-01 10:33:00,
2013-01-01 04:43:00,-7.0,-9.0,-100.00,South,190,7.0,11.0,90,-99.99,,,-99.99,,2013-01-01 10:43:00,
2013-01-01 04:53:00,-7.0,-9.0,-100.00,South,190,7.0,11.0,90,-99.99,,,-99.99,,2013-01-01 10:53:00,
2013-01-01 05:02:00,-6.0,-8.0,-100.00,SSW,200,7.0,11.0,90,-99.99,,,-99.99,,2013-01-01 11:02:00,
2013-01-01 05:12:00,-6.0,-8.0,-100.00,SSW,200,7.0,11.0,90,-99.99,,,-99.99,,2013-01-01 11:12:00,
2013-01-01 05:22:00,-6.0,-8.0,-100.00,SSW,200,7.0,11.0,90,-99.99,,,-99.99,,2013-01-01 11:22:00,
2013-01-01 05:32:00,-6.0,-8.0,-100.00,SW,220,4.0,7.0,90,-99.99,,,-99.99,,2013-01-01 11:32:00,
2013-01-01 05:43:00,-6.0,-8.0,-100.00,SW,220,4.0,7.0,90,-99.99,,,-99.99,,2013-01-01 11:43:00,
2013-01-01 05:53:00,-6.0,-8.0,-100.00,SW,220,4.0,7.0,90,-99.99,,,-99.99,,2013-01-01 11:53:00,
2013-01-01 06:02:00,-5.0,-7.0,-100.00,SSW,195,6.0,10.0,90,-99.99,,,-99.99,,2013-01-01 12:02:00,
2013-01-01 06:12:00,-5.0,-7.0,-100.00,SSW,195,6.0,10.0,90,-99.99,,,-99.99,,2013-01-01 12:12:00,
2013-01-01 06:22:00,-5.0,-7.0,-100.00,SSW,195,6.0,10.0,90,-99.99,,,-99.99,,2013-01-01 12:22:00,
2013-01-01 06:32:00,-3.0,-5.0,-100.00,SSW,200,7.0,11.0,91,-99.99,,,-99.99,,2013-01-01 12:32:00,
2013-01-01 06:43:00,-3.0,-5.0,-100.00,SSW,200,7.0,11.0,91,-99.99,,,-99.99,,2013-01-01 12:43:00,
2013-01-01 06:53:00,-3.0,-5.0,-100.00,SSW,200,7.0,11.0,91,-99.99,,,-99.99,,2013-01-01 12:53:00,
2013-01-01 07:02:00,-2.0,-4.0,-100.00,SSW,195,9.0,13.0,91,-99.99,,,-99.99,,2013-01-01 13:02:00,
2013-01-01 07:12:00,-2.0,-4.0,-100.00,SSW,195,9.0,13.0,91,-99.99,,,-99.99,,2013-01-01 13:12:00,
2013-01-01 07:22:00,-2.0,-4.0,-100.00,SSW,195,9.0,13.0,91,-99.99,,,-99.99,,2013-01-01 13:22:00,
2013-01-01 07:32:00,-1.0,-3.0,-100.00,SSW,205,7.0,13.0,91,-99.99,,,-99.99,,2013-01-01 13:32:00,
2013-01-01 07:43:00,-1.0,-3.0,-100.00,SSW,205,7.0,13.0,91,-99.99,,,-99.99,,2013-01-01 13:43:00,
2013-01-01 07:53:00,-1.0,-3.0,-100.00,SSW,205,7.0,13.0,91,-99.99,,,-99.99,,2013-01-01 13:53:00,
2013-01-01 08:02:00,-1.0,-3.0,-100.00,SSW,195,7.0,11.0,91,-99.99,,,-99.99,,2013-01-01 14:02:00,
2013-01-01 08:12:00,-1.0,-3.0,-100.00,SSW,195,7.0,11.0,91,-99.99,,,-99.99,,2013-01-01 14:12:00,
2013-01-01 08:22:00,-1.0,-3.0,-100.00,SSW,195,7.0,11.0,91,-99.99,,,-99.99,,2013-01-01 14:22:00,
2013-01-01 08:32:00,0.0,-2.0,-100.00,SSW,205,7.0,13.0,91,-99.99,,,-99.99,,2013-01-01 14:32:00,
2013-01-01 08:43:00,0.0,-2.0,-100.00,SSW,205,7.0,13.0,91,-99.99,,,-99.99,,2013-01-01 14:43:00,
2013-01-01 08:53:00,0.0,-2.0,-100.00,SSW,205,7.0,13.0,91,-99.99,,,-99.99,,2013-01-01 14:53:00,
2013-01-01 09:03:00,1.0,-1.0,-100.00,SSW,195,7.0,12.0,92,-99.99,,,-99.99,,2013-01-01 15:03:00,
2013-01-01 09:12:00,1.0,-1.0,-100.00,SSW,195,7.0,12.0,92,-99.99,,,-99.99,,2013-01-01 15:12:00,
2013-01-01 09:22:00,1.0,-1.0,-100.00,SSW,195,7.0,12.0,92,-99.99,,,-99.99,,2013-01-01 15:22:00,
2013-01-01 09:33:00,3.0,1.0,-100.00,SSW,195,7.0,13.0,92,-99.99,,,-99.99,,2013-01-01 15:33:00,
2013-01-01 09:43:00,3.0,1.0,-100.00,SSW,195,7.0,13.0,92,-99.99,,,-99.99,,2013-01-01 15:43:00,
2013-01-01 09:53:00,3.0,1.0,-100.00,SSW,195,7.0,13.0,92,-99.99,,,-99.99,,2013-01-01 15:53:00,
2013-01-01 10:02:00,3.0,1.0,-100.00,SSW,200,7.0,12.0,92,-99.99,,,-99.99,,2013-01-01 16:02:00,
2013-01-01 10:12:00,3.0,1.0,-100.00,SSW,200,7.0,12.0,92,-99.99,,,-99.99,,2013-01-01 16:12:00,
2013-01-01 10:22:00,3.0,1.0,-100.00,SSW,200,7.0,12.0,92,-99.99,,,-99.99,,2013-01-01 16:22:00,
2013-01-01 10:33:00,3.0,1.0,-100.00,SSW,200,7.0,12.0,92,-99.99,,,-99.99,,2013-01-01 16:33:00,
2013-01-01 10:43:00,3.0,1.0,-100.00,SSW,200,7.0,12.0,92,-99.99,,,-99.99,,2013-01-01 16:43:00,
2013-01-01 10:53:00,3.0,1.0,-100.00,SSW,200,7.0,12.0,92,-99.99,,,-99.99,,2013-01-01 16:53:00,
2013-01-01 11:02:00,4.0,3.0,-100.00,South,190,6.0,11.0,93,-99.99,,,-99.99,,2013-01-01 17:02:00,
2013-01-01 11:12:00,4.0,3.0,-100.00,South,190,6.0,11.0,93,-99.99,,,-99.99,,2013-01-01 17:12:00,
2013-01-01 11:22:00,4.0,3.0,-100.00,South,190,6.0,11.0,93,-99.99,,,-99.99,,2013-01-01 17:22:00,
2013-01-01 11:33:00,6.0,4.0,-100.00,SSW,200,9.0,12.0,93,-99.99,,,-99.99,,2013-01-01 17:33:00,
2013-01-01 11:43:00,6.0,4.0,-100.00,SSW,200,9.0,12.0,93,-99.99,,,-99.99,,2013-01-01 17:43:00,
2013-01-01 11:53:00,6.0,4.0,-100.00,SSW,200,9.0,12.0,93,-99.99,,,-99.99,,2013-01-01 17:53:00,
2013-01-01 12:03:00,6.0,5.0,-100.00,SSW,195,8.0,16.0,93,-99.99,,,-99.99,,2013-01-01 18:03:00,
2013-01-01 12:12:00,6.0,5.0,-100.00,SSW,195,8.0,16.0,93,-99.99,,,-99.99,,2013-01-01 18:12:00,
2013-01-01 12:22:00,6.0,5.0,-100.00,SSW,195,8.0,16.0,93,-99.99,,,-99.99,,2013-01-01 18:22:00,
2013-01-01 12:33:00,8.0,6.0,-100.00,South,190,12.0,17.0,93,-99.99,,,-99.99,,2013-01-01 18:33:00,
2013-01-01 12:43:00,8.0,6.0,-100.00,South,190,12.0,17.0,93,-99.99,,,-99.99,,2013-01-01 18:43:00,
2013-01-01 12:53:00,8.0,6.0,-100.00,South,190,12.0,17.0,93,-99.99,,,-99.99,,2013-01-01 18:53:00,
2013-01-01 13:02:00,10.0,8.0,-100.00,SSW,195,9.0,18.0,94,-99.99,,,-99.99,,2013-01-01 19:02:00,
2013-01-01 13:12:00,10.0,8.0,-100.00,SSW,195,9.0,18.0,94,-99.99,,,-99.99,,2013-01-01 19:12:00,
2013-01-01 13:22:00,10.0,8.0,-100.00,SSW,195,9.0,18.0,94,-99.99,,,-99.99,,2013-01-01 19:22:00,
2013-01-01 13:32:00,12.0,11.0,-100.00,SSW,200,12.0,17.0,95,-99.99,,,-99.99,,2013-01-01 19:32:00,
2013-01-01 13:43:00,12.0,11.0,-100.00,SSW,200,12.0,17.0,95,-99.99,,,-99.99,,2013-01-01 19:43:00,
2013-01-01 13:53:00,12.0,11.0,-100.00,SSW,200,12.0,17.0,95,-99.99,,,-99.99,,2013-01-01 19:53:00,
2013-01-01 14:02:00,13.0,11.0,-100.00,SSW,200,12.0,18.0,95,-99.99,,,-99.99,,2013-01-01 20:02:00,
2013-01-01 14:12:00,13.0,11.0,-100.00,SSW,200,12.0,18.0,95,-99.99,,,-99.99,,2013-01-01 20:12:00,
2013-01-01 14:23:00,13.0,11.0,-100.00,SSW,200,12.0,18.0,95,-99.99,,,-99.99,,2013-01-01 20:23:00,
2013-01-01 14:32:00,14.0,13.0,-100.00,SSW,195,11.0,17.0,94,-99.99,,,-99.99,,2013-01-01 20:32:00,
2013-01-01 14:42:00,14.0,13.0,-100.00,SSW,195,11.0,17.0,94,-99.99,,,-99.99,,2013-01-01 20:42:00,
2013-01-01 14:53:00,14.0,13.0,-100.00,SSW,195,11.0,17.0,94,-99.99,,,-99.99,,2013-01-01 20:53:00,
2013-01-01 15:03:00,15.0,12.0,-100.00,South,185,12.0,19.0,91,-99.99,,,-99.99,,2013-01-01 21:03:00,
2013-01-01 15:12:00,15.0,12.0,-100.00,South,185,12.0,19.0,91,-99.99,,,-99.99,,2013-01-01 21:12:00,
2013-01-01 15:22:00,15.0,12.0,-100.00,South,185,12.0,19.0,91,-99.99,,,-99.99,,2013-01-01 21:22:00,
2013-01-01 15:33:00,15.0,13.0,-100.00,South,175,11.0,17.0,89,-99.99,,,-99.99,,2013-01-01 21:33:00,
2013-01-01 15:42:00,15.0,13.0,-100.00,South,175,11.0,17.0,89,-99.99,,,-99.99,,2013-01-01 21:42:00,
2013-01-01 15:53:00,15.0,13.0,-100.00,South,175,11.0,17.0,89,-99.99,,,-99.99,,2013-01-01 21:53:00,
2013-01-01 16:02:00,16.0,14.0,-100.00,South,180,11.0,17.0,90,-99.99,,,-99.99,,2013-01-01 22:02:00,
2013-01-01 16:12:00,16.0,14.0,-100.00,South,180,11.0,17.0,90,-99.99,,,-99.99,,2013-01-01 22:12:00,
2013-01-01 16:22:00,16.0,14.0,-100.00,South,180,11.0,17.0,90,-99.99,,,-99.99,,2013-01-01 22:22:00,
2013-01-01 16:33:00,17.0,15.0,-100.00,South,185,12.0,16.0,91,-99.99,,,-99.99,,2013-01-01 22:33:00,
2013-01-01 16:43:00,17.0,15.0,-100.00,South,185,12.0,16.0,91,-99.99,,,-99.99,,2013-01-01 22:43:00,
2013-01-01 16:52:00,17.0,15.0,-100.00,South,185,12.0,16.0,91,-99.99,,,-99.99,,2013-01-01 22:52:00,
2013-01-01 17:02:00,17.0,15.0,-100.00,SSW,200,7.0,12.0,92,-99.99,,,-99.99,,2013-01-01 23:02:00,
2013-01-01 17:12:00,17.0,15.0,-100.00,SSW,200,7.0,12.0,92,-99.99,,,-99.99,,2013-01-01 23:12:00,
2013-01-01 17:22:00,17.0,15.0,-100.00,SSW,200,7.0,12.0,92,-99.99,,,-99.99,,2013-01-01 23:22:00,
2013-01-01 17:32:00,17.0,15.0,-100.00,SSW,195,7.0,13.0,93,-99.99,,,-99.99,,2013-01-01 23:32:00,
2013-01-01 17:42:00,17.0,15.0,-100.00,SSW,195,7.0,13.0,93,-99.99,,,-99.99,,2013-01-01 23:42:00,
2013-01-01 17:53:00,17.0,15.0,-100.00,SSW,195,7.0,13.0,93,-99.99,,,-99.99,,2013-01-01 23:53:00,
2013-01-01 18:02:00,16.0,15.0,-100.00,South,185,10.0,13.0,94,-99.99,,,-99.99,,2013-01-02 00:02:00,
2013-01-01 18:12:00,16.0,15.0,-100.00,South,185,10.0,13.0,94,-99.99,,,-99.99,,2013-01-02 00:12:00,
2013-01-01 18:22:00,16.0,15.0,-100.00,South,185,10.0,13.0,94,-99.99,,,-99.99,,2013-01-02 00:22:00,
2013-01-01 18:32:00,16.0,15.0,-100.00,South,185,12.0,14.0,95,-99.99,,,-99.99,,2013-01-02 00:32:00,
2013-01-01 18:43:00,16.0,15.0,-100.00,South,185,12.0,14.0,95,-99.99,,,-99.99,,2013-01-02 00:43:00,
2013-01-01 18:53:00,16.0,15.0,-100.00,South,185,12.0,14.0,95,-99.99,,,-99.99,,2013-01-02 00:53:00,
2013-01-01 19:02:00,16.0,14.0,-100.00,South,185,11.0,15.0,95,-99.99,,,-99.99,,2013-01-02 01:02:00,
2013-01-01 19:12:00,16.0,14.0,-100.00,South,185,11.0,15.0,95,-99.99,,,-99.99,,2013-01-02 01:12:00,
2013-01-01 19:22:00,16.0,14.0,-100.00,South,185,11.0,15.0,95,-99.99,,,-99.99,,2013-01-02 01:22:00,
2013-01-01 19:32:00,14.0,13.0,-100.00,SSW,195,6.0,10.0,95,-99.99,,,-99.99,,2013-01-02 01:32:00,
2013-01-01 19:42:00,14.0,13.0,-100.00,SSW,195,6.0,10.0,95,-99.99,,,-99.99,,2013-01-02 01:42:00,
2013-01-01 19:52:00,14.0,13.0,-100.00,SSW,195,6.0,10.0,95,-99.99,,,-99.99,,2013-01-02 01:52:00,
2013-01-01 20:02:00,15.0,14.0,-100.00,South,190,9.0,15.0,96,-99.99,,,-99.99,,2013-01-02 02:02:00,
2013-01-01 20:12:00,15.0,14.0,-100.00,South,190,9.0,15.0,96,-99.99,,,-99.99,,2013-01-02 02:12:00,
2013-01-01 20:22:00,15.0,14.0,-100.00,South,190,9.0,15.0,96,-99.99,,,-99.99,,2013-01-02 02:22:00,
2013-01-01 20:32:00,16.0,15.0,-100.00,SSW,195,10.0,15.0,96,-99.99,,,-99.99,,2013-01-02 02:32:00,
2013-01-01 20:43:00,16.0,15.0,-100.00,SSW,195,10.0,15.0,96,-99.99,,,-99.99,,2013-01-02 02:43:00,
2013-01-01 20:53:00,16.0,15.0,-100.00,SSW,195,10.0,15.0,96,-99.99,,,-99.99,,2013-01-02 02:53:00,
2013-01-01 21:02:00,16.0,15.0,-100.00,SSW,195,11.0,16.0,95,-99.99,,,-99.99,,2013-01-02 03:02:00,
2013-01-01 21:12:00,16.0,15.0,-100.00,SSW,195,11.0,16.0,95,-99.99,,,-99.99,,2013-01-02 03:12:00,
2013-01-01 21:22:00,16.0,15.0,-100.00,SSW,195,11.0,16.0,95,-99.99,,,-99.99,,2013-01-02 03:22:00,
2013-01-01 21:32:00,17.0,15.0,-100.00,South,185,9.0,14.0,95,-99.99,,,-99.99,,2013-01-02 03:32:00,
2013-01-01 21:42:00,17.0,15.0,-100.00,South,185,9.0,14.0,95,-99.99,,,-99.99,,2013-01-02 03:42:00,
2013-01-01 21:53:00,17.0,15.0,-100.00,South,185,9.0,14.0,95,-99.99,,,-99.99,,2013-01-02 03:53:00,
2013-01-01 22:02:00,17.0,16.0,-100.00,South,185,9.0,13.0,95,-99.99,,,-99.99,,2013-01-02 04:02:00,
2013-01-01 22:12:00,17.0,16.0,-100.00,South,185,9.0,13.0,95,-99.99,,,-99.99,,2013-01-02 04:12:00,
2013-01-01 22:22:00,17.0,16.0,-100.00,South,185,9.0,13.0,95,-99.99,,,-99.99,,2013-01-02 04:22:00,
2013-01-01 22:32:00,17.0,16.0,-100.00,SSW,195,8.0,12.0,95,-99.99,,,-99.99,,2013-01-02 04:32:00,
2013-01-01 22:42:00,17.0,16.0,-100.00,SSW,195,8.0,12.0,95,-99.99,,,-99.99,,2013-01-02 04:42:00,
2013-01-01 22:52:00,17.0,16.0,-100.00,SSW,195,8.0,12.0,95,-99.99,,,-99.99,,2013-01-02 04:52:00,
2013-01-01 23:03:00,18.0,16.0,-100.00,SSW,195,9.0,14.0,94,-99.99,,,-99.99,,2013-01-02 05:03:00,
2013-01-01 23:12:00,18.0,16.0,-100.00,SSW,195,9.0,14.0,94,-99.99,,,-99.99,,2013-01-02 05:12:00,
2013-01-01 23:22:00,18.0,16.0,-100.00,SSW,195,9.0,14.0,94,-99.99,,,-99.99,,2013-01-02 05:22:00,
2013-01-01 23:33:00,18.0,16.0,-100.00,SSW,195,9.0,14.0,94,-99.99,,,-99.99,,2013-01-02 05:33:00,